createdAt,value
2018-10-05T00:00:59.351Z,8.70
2018-10-05T00:03:26.842Z,7.72
2018-10-05T00:05:54.419Z,8.85
2018-10-05T00:08:21.941Z,9.03
2018-10-05T00:10:49.478Z,8.88
2018-10-05T00:13:16.953Z,8.80
2018-10-05T00:15:44.509Z,7.87
2018-10-05T00:18:49.869Z,8.43
2018-10-05T00:21:21.440Z,7.75
2018-10-05T00:26:30.961Z,8.20
2018-10-05T00:28:58.429Z,7.85
2018-10-05T00:31:25.877Z,7.35
2018-10-05T00:33:54.751Z,7.90
2018-10-05T00:36:22.365Z,7.72
2018-10-05T00:38:49.835Z,8.80
2018-10-05T00:41:17.326Z,8.45
2018-10-05T00:43:44.947Z,8.40
2018-10-05T00:46:12.446Z,8.60
2018-10-05T00:48:40.007Z,8.35
2018-10-05T00:51:07.514Z,7.87
2018-10-05T00:53:35.176Z,8.38
2018-10-05T00:56:02.546Z,9.48
2018-10-05T00:58:30.097Z,8.50
2018-10-05T01:00:57.594Z,8.63
2018-10-05T01:03:25.171Z,8.30
2018-10-05T01:05:52.650Z,9.15
2018-10-05T01:08:20.228Z,8.88
2018-10-05T01:10:47.700Z,9.15
2018-10-05T01:13:15.294Z,9.55
2018-10-05T01:15:42.785Z,8.70
2018-10-05T01:18:10.265Z,8.48
2018-10-05T01:20:37.816Z,9.35
2018-10-05T01:23:05.314Z,8.68
2018-10-05T01:25:32.866Z,8.45
2018-10-05T01:28:00.366Z,9.90
2018-10-05T01:30:27.914Z,9.28
2018-10-05T01:32:55.434Z,9.25
2018-10-05T01:35:23.021Z,9.38
2018-10-05T01:37:50.487Z,10.50
2018-10-05T01:40:17.951Z,9.60
2018-10-05T01:42:45.597Z,9.75
2018-10-05T01:45:13.070Z,9.15
2018-10-05T01:47:40.618Z,9.23
2018-10-05T01:50:08.129Z,9.45
2018-10-05T01:52:35.666Z,10.78
2018-10-05T01:55:03.161Z,9.60
2018-10-05T01:57:30.694Z,9.43
2018-10-05T01:59:58.177Z,9.58
2018-10-05T02:02:25.757Z,8.95
2018-10-05T02:04:53.194Z,9.25
2018-10-05T02:07:21.739Z,9.13
2018-10-05T02:09:50.075Z,8.83
2018-10-05T02:14:46.417Z,9.70
2018-10-05T02:17:13.938Z,9.50
2018-10-05T02:19:41.411Z,8.68
2018-10-05T02:22:08.971Z,10.50
2018-10-05T02:24:36.431Z,9.20
2018-10-05T02:27:04.001Z,9.45
2018-10-05T02:29:31.487Z,9.15
2018-10-05T02:31:59.032Z,8.58
2018-10-05T02:34:26.476Z,9.18
2018-10-05T02:36:54.026Z,8.15
2018-10-05T02:39:21.486Z,8.98
2018-10-05T02:41:49.011Z,9.43
2018-10-05T02:44:16.594Z,9.60
2018-10-05T02:46:44.066Z,9.08
2018-10-05T02:49:11.607Z,10.50
2018-10-05T02:51:39.088Z,8.40
2018-10-05T02:54:06.676Z,8.50
2018-10-05T02:56:34.225Z,9.80
2018-10-05T02:59:02.165Z,8.63
2018-10-05T03:01:41.125Z,8.90
2018-10-05T03:04:08.663Z,8.40
2018-10-05T03:06:36.114Z,8.60
2018-10-05T03:09:04.390Z,8.10
2018-10-05T03:11:31.986Z,8.88
2018-10-05T03:13:59.452Z,8.18
2018-10-05T03:16:27.025Z,8.43
2018-10-05T03:18:54.495Z,8.60
2018-10-05T03:21:22.046Z,8.10
2018-10-05T03:23:49.560Z,9.73
2018-10-05T03:26:17.125Z,7.97
2018-10-05T03:28:44.591Z,8.73
2018-10-05T03:31:12.059Z,8.78
2018-10-05T03:33:39.709Z,8.70
2018-10-05T03:36:07.192Z,8.23
2018-10-05T03:38:34.673Z,9.03
2018-10-05T03:41:04.104Z,8.43
2018-10-05T03:43:31.651Z,8.98
2018-10-05T03:45:59.249Z,8.18
2018-10-05T03:48:26.725Z,9.70
2018-10-05T03:50:54.250Z,9.15
2018-10-05T03:53:21.725Z,9.43
2018-10-05T03:55:49.247Z,8.50
2018-10-05T03:58:16.681Z,8.73
2018-10-05T04:00:44.197Z,9.13
2018-10-05T04:03:11.747Z,9.65
2018-10-05T04:05:39.279Z,9.60
2018-10-05T04:08:06.741Z,8.93
2018-10-05T04:10:34.194Z,9.28
2018-10-05T04:13:02.242Z,9.05
2018-10-05T04:15:29.777Z,9.80
2018-10-05T04:17:57.317Z,9.75
2018-10-05T04:20:24.817Z,9.15
2018-10-05T04:22:52.346Z,9.50
2018-10-05T04:25:19.799Z,9.15
2018-10-05T04:27:47.326Z,9.93
2018-10-05T04:30:19.348Z,9.00
2018-10-05T04:32:48.905Z,9.63
2018-10-05T04:35:17.205Z,8.95
2018-10-05T04:37:44.683Z,10.35
2018-10-05T04:40:12.231Z,10.80
2018-10-05T04:42:39.769Z,10.38
2018-10-05T04:45:07.345Z,9.88
2018-10-05T04:47:34.861Z,10.35
2018-10-05T04:50:02.579Z,10.60
2018-10-05T04:52:32.025Z,11.03
2018-10-05T04:54:59.817Z,10.35
2018-10-05T04:57:28.423Z,10.78
2018-10-05T05:02:56.137Z,12.33
2018-10-05T05:05:23.665Z,11.12
2018-10-05T05:07:51.229Z,10.50
2018-10-05T05:10:18.756Z,11.80
2018-10-05T05:12:46.322Z,11.30
2018-10-05T05:15:13.862Z,11.55
2018-10-05T05:17:41.534Z,11.57
2018-10-05T05:20:09.004Z,10.88
2018-10-05T05:22:36.657Z,11.45
2018-10-05T05:25:04.199Z,11.70
2018-10-05T05:27:31.784Z,11.60
2018-10-05T05:29:59.270Z,12.18
2018-10-05T05:32:26.820Z,11.40
2018-10-05T05:34:54.272Z,11.90
2018-10-05T05:37:27.831Z,11.90
2018-10-05T05:39:55.287Z,12.18
2018-10-05T05:42:22.937Z,13.15
2018-10-05T05:44:50.373Z,13.40
2018-10-05T05:47:17.851Z,11.88
2018-10-05T05:49:45.438Z,13.20
2018-10-05T05:52:12.907Z,13.75
2018-10-05T05:54:40.444Z,13.53
2018-10-05T05:57:07.925Z,12.73
2018-10-05T05:59:35.498Z,12.65
2018-10-05T06:02:03.014Z,13.15
2018-10-05T06:04:30.566Z,11.12
2018-10-05T06:06:58.023Z,11.30
2018-10-05T06:09:25.559Z,12.55
2018-10-05T06:11:53.052Z,12.25
2018-10-05T06:14:20.583Z,11.80
2018-10-05T06:16:48.121Z,12.88
2018-10-05T06:19:15.602Z,12.53
2018-10-05T06:21:43.290Z,13.18
2018-10-05T06:24:10.626Z,12.55
2018-10-05T06:26:38.165Z,12.30
2018-10-05T06:29:05.695Z,14.40
2018-10-05T06:31:33.187Z,13.95
2018-10-05T06:34:00.872Z,13.88
2018-10-05T06:36:28.320Z,13.05
2018-10-05T06:38:55.938Z,13.48
2018-10-05T06:41:23.342Z,14.33
2018-10-05T06:43:51.365Z,14.13
2018-10-05T06:46:18.939Z,13.40
2018-10-05T06:48:46.410Z,13.40
2018-10-05T06:51:13.989Z,13.58
2018-10-05T06:53:41.480Z,13.95
2018-10-05T06:56:09.162Z,13.50
2018-10-05T06:58:36.611Z,14.60
2018-10-05T07:01:04.173Z,13.95
2018-10-05T07:03:31.650Z,14.28
2018-10-05T07:05:59.393Z,14.35
2018-10-05T07:08:26.905Z,14.35
2018-10-05T07:10:54.453Z,14.45
2018-10-05T07:13:22.054Z,13.35
2018-10-05T07:15:49.721Z,14.13
2018-10-05T07:18:17.260Z,15.28
2018-10-05T07:20:44.747Z,14.53
2018-10-05T07:23:12.309Z,14.18
2018-10-05T07:25:39.768Z,14.05
2018-10-05T07:28:07.322Z,16.70
2018-10-05T07:30:35.035Z,15.38
2018-10-05T07:33:02.516Z,14.07
2018-10-05T07:35:30.054Z,14.80
2018-10-05T07:37:57.583Z,15.53
2018-10-05T07:40:25.070Z,15.63
2018-10-05T07:42:52.796Z,15.38
2018-10-05T07:45:20.285Z,15.13
2018-10-05T07:47:47.750Z,15.70
2018-10-05T07:50:15.307Z,16.02
2018-10-05T07:52:42.782Z,16.32
2018-10-05T07:55:10.364Z,16.10
2018-10-05T07:57:37.929Z,15.90
2018-10-05T08:00:05.550Z,15.60
2018-10-05T08:02:33.147Z,14.95
2018-10-05T08:05:00.817Z,16.37
2018-10-05T08:07:28.325Z,17.02
2018-10-05T08:09:55.790Z,15.03
2018-10-05T08:12:23.374Z,16.07
2018-10-05T08:14:50.881Z,15.88
2018-10-05T08:17:18.459Z,16.48
2018-10-05T08:19:46.001Z,16.40
2018-10-05T08:22:13.653Z,15.00
2018-10-05T08:24:41.138Z,15.40
2018-10-05T08:27:08.749Z,15.95
2018-10-05T08:29:36.223Z,16.10
2018-10-05T08:32:03.849Z,15.98
2018-10-05T08:34:31.434Z,17.02
2018-10-05T08:36:59.038Z,16.48
2018-10-05T08:39:26.562Z,16.42
2018-10-05T08:41:54.138Z,15.68
2018-10-05T08:44:21.730Z,16.97
2018-10-05T08:46:49.344Z,16.97
2018-10-05T08:49:16.946Z,16.55
2018-10-05T08:51:44.539Z,15.93
2018-10-05T08:54:12.038Z,16.93
2018-10-05T08:56:39.542Z,16.15
2018-10-05T08:59:07.192Z,15.08
2018-10-05T09:01:34.739Z,15.23
2018-10-05T09:04:02.744Z,16.15
2018-10-05T09:06:30.642Z,16.30
2018-10-05T09:08:58.190Z,15.50
2018-10-05T09:11:25.854Z,14.30
2018-10-05T09:13:53.386Z,14.68
2018-10-05T09:16:21.009Z,14.45
2018-10-05T09:18:48.554Z,14.55
2018-10-05T09:21:16.159Z,15.48
2018-10-05T09:23:43.661Z,14.90
2018-10-05T09:26:11.216Z,15.30
2018-10-05T09:28:38.749Z,14.35
2018-10-05T09:31:06.384Z,13.95
2018-10-05T09:33:33.943Z,15.10
2018-10-05T09:36:01.633Z,15.23
2018-10-05T09:38:29.153Z,15.93
2018-10-05T09:40:56.735Z,14.43
2018-10-05T09:43:24.423Z,15.23
2018-10-05T09:45:52.872Z,14.80
2018-10-05T09:48:20.494Z,15.85
2018-10-05T09:50:48.946Z,16.20
2018-10-05T09:53:16.551Z,15.32
2018-10-05T09:55:44.084Z,15.30
2018-10-05T09:58:11.697Z,15.25
2018-10-05T10:00:44.933Z,17.48
2018-10-05T10:03:18.211Z,15.83
2018-10-05T10:05:45.746Z,14.78
2018-10-05T10:08:13.421Z,16.30
2018-10-05T10:10:40.868Z,15.18
2018-10-05T10:13:08.556Z,15.90
2018-10-05T10:15:36.137Z,14.28
2018-10-05T10:18:03.757Z,14.95
2018-10-05T10:20:31.306Z,15.58
2018-10-05T10:22:58.873Z,14.18
2018-10-05T10:25:26.435Z,15.32
2018-10-05T10:27:54.041Z,14.68
2018-10-05T10:30:21.611Z,14.10
2018-10-05T10:32:49.156Z,15.35
2018-10-05T10:35:16.765Z,16.52
2018-10-05T10:37:44.314Z,14.90
2018-10-05T10:40:11.996Z,14.35
2018-10-05T10:42:39.753Z,15.20
2018-10-05T10:45:07.875Z,13.38
2018-10-05T10:47:35.647Z,13.55
2018-10-05T10:50:03.367Z,13.90
2018-10-05T10:52:30.904Z,13.45
2018-10-05T10:54:58.568Z,13.65
2018-10-05T10:57:26.033Z,13.43
2018-10-05T10:59:53.581Z,12.28
2018-10-05T11:02:21.227Z,11.35
2018-10-05T11:04:48.891Z,12.90
2018-10-05T11:07:16.514Z,14.63
2018-10-05T11:09:44.123Z,14.68
2018-10-05T11:12:11.753Z,12.55
2018-10-05T11:14:39.307Z,12.18
2018-10-05T11:17:06.961Z,12.05
2018-10-05T11:19:34.428Z,12.65
2018-10-05T11:22:02.089Z,12.43
2018-10-05T11:24:37.226Z,12.10
2018-10-05T11:27:04.873Z,12.47
2018-10-05T11:29:32.547Z,11.00
2018-10-05T11:32:00.143Z,11.70
2018-10-05T11:34:27.762Z,11.53
2018-10-05T11:36:55.297Z,12.23
2018-10-05T11:39:22.907Z,12.43
2018-10-05T11:41:50.443Z,12.28
2018-10-05T11:44:18.140Z,11.55
2018-10-05T11:46:45.673Z,10.43
2018-10-05T11:49:13.282Z,12.10
2018-10-05T11:51:40.879Z,11.50
2018-10-05T11:54:08.539Z,10.60
2018-10-05T11:56:36.037Z,11.33
2018-10-05T11:59:03.573Z,10.65
2018-10-05T12:01:31.152Z,10.70
2018-10-05T12:04:09.162Z,11.53
2018-10-05T12:06:36.797Z,9.80
2018-10-05T12:09:13.095Z,10.63
2018-10-05T12:11:40.922Z,11.35
2018-10-05T12:14:08.471Z,11.63
2018-10-05T12:16:36.074Z,10.98
2018-10-05T12:19:03.549Z,10.83
2018-10-05T12:21:31.267Z,10.60
2018-10-05T12:23:58.778Z,10.87
2018-10-05T12:26:26.384Z,10.30
2018-10-05T12:28:53.974Z,11.80
2018-10-05T12:31:21.480Z,9.47
2018-10-05T12:33:49.138Z,10.00
2018-10-05T12:36:17.197Z,10.77
2018-10-05T12:38:45.514Z,10.13
2018-10-05T12:41:13.028Z,9.37
2018-10-05T12:43:40.713Z,9.00
2018-10-05T12:46:08.198Z,9.47
2018-10-05T12:48:35.842Z,9.67
2018-10-05T12:51:03.365Z,9.60
2018-10-05T12:53:31.152Z,9.10
2018-10-05T12:55:58.670Z,9.30
2018-10-05T12:58:26.265Z,9.30
2018-10-05T13:00:53.915Z,8.23
2018-10-05T13:03:21.498Z,8.30
2018-10-05T13:05:49.143Z,9.20
2018-10-05T13:08:20.943Z,9.27
2018-10-05T13:12:11.222Z,8.97
2018-10-05T13:15:10.640Z,9.33
2018-10-05T13:17:43.574Z,7.57
2018-10-05T13:20:11.266Z,8.10
2018-10-05T13:22:38.884Z,8.40
2018-10-05T13:25:06.540Z,7.43
2018-10-05T13:27:34.070Z,9.30
2018-10-05T13:30:01.983Z,8.20
2018-10-05T13:32:29.494Z,8.27
2018-10-05T13:34:56.979Z,8.20
2018-10-05T13:37:24.686Z,8.40
2018-10-05T13:39:52.124Z,7.37
2018-10-05T13:42:26.644Z,7.87
2018-10-05T13:44:55.880Z,7.53
2018-10-05T13:47:23.426Z,7.80
2018-10-05T13:49:51.048Z,8.33
2018-10-05T13:52:18.569Z,8.00
2018-10-05T13:54:46.147Z,9.20
2018-10-05T13:57:13.667Z,6.90
2018-10-05T13:59:41.316Z,8.03
2018-10-05T14:02:08.852Z,7.80
2018-10-05T14:04:36.404Z,7.60
2018-10-05T14:07:04.015Z,7.27
2018-10-05T14:09:31.529Z,7.03
2018-10-05T14:11:59.136Z,7.10
2018-10-05T14:14:26.721Z,6.80
2018-10-05T14:16:54.221Z,7.37
2018-10-05T14:19:21.750Z,7.63
2018-10-05T14:21:49.328Z,8.00
2018-10-05T14:24:16.896Z,7.40
2018-10-05T14:26:44.463Z,7.47
2018-10-05T14:29:11.947Z,6.47
2018-10-05T14:31:39.506Z,5.37
2018-10-05T14:34:07.020Z,6.90
2018-10-05T14:36:34.519Z,7.37
2018-10-05T14:39:02.186Z,6.60
2018-10-05T14:41:29.750Z,6.73
2018-10-05T14:43:57.463Z,7.73
2018-10-05T14:46:24.942Z,7.67
2018-10-05T14:48:52.525Z,7.20
2018-10-05T14:51:20.014Z,6.70
2018-10-05T14:53:47.631Z,7.53
2018-10-05T14:56:15.176Z,7.60
2018-10-05T14:58:42.671Z,7.10
2018-10-05T15:01:10.266Z,6.77
2018-10-05T15:03:37.777Z,7.27
2018-10-05T15:06:05.419Z,7.17
2018-10-05T15:08:32.947Z,7.87
2018-10-05T15:11:00.964Z,7.10
2018-10-05T15:13:28.487Z,6.90
2018-10-05T15:15:56.064Z,6.33
2018-10-05T15:18:23.605Z,7.30
2018-10-05T15:20:51.191Z,6.43
2018-10-05T15:23:18.769Z,6.73
2018-10-05T15:25:46.348Z,6.20
2018-10-05T15:28:13.966Z,7.17
2018-10-05T15:30:41.530Z,7.27
2018-10-05T15:33:09.139Z,7.03
2018-10-05T15:35:36.637Z,6.33
2018-10-05T15:38:04.383Z,7.03
2018-10-05T15:40:31.874Z,7.17
2018-10-05T15:42:59.653Z,5.97
2018-10-05T15:45:27.169Z,6.60
2018-10-05T15:47:54.777Z,5.90
2018-10-05T15:50:22.252Z,5.30
2018-10-05T15:52:49.897Z,5.60
2018-10-05T15:55:17.414Z,6.90
2018-10-05T15:57:44.984Z,5.37
2018-10-05T16:00:12.556Z,6.47
2018-10-05T16:02:40.087Z,5.37
2018-10-05T16:05:07.755Z,5.63
2018-10-05T16:07:35.354Z,5.03
2018-10-05T16:10:03.023Z,5.80
2018-10-05T16:12:30.621Z,5.25
2018-10-05T16:14:58.255Z,4.70
2018-10-05T16:17:25.803Z,4.28
2018-10-05T16:19:53.459Z,4.90
2018-10-05T16:22:20.995Z,5.10
2018-10-05T16:24:48.660Z,5.75
2018-10-05T16:27:16.158Z,5.80
2018-10-05T16:29:43.711Z,6.08
2018-10-05T16:32:11.679Z,7.45
2018-10-05T16:34:39.178Z,7.78
2018-10-05T16:37:06.730Z,7.28
2018-10-05T16:39:34.718Z,8.00
2018-10-05T16:42:03.250Z,7.80
2018-10-05T16:44:30.765Z,7.15
2018-10-05T16:46:58.485Z,8.40
2018-10-05T16:49:26.023Z,7.33
2018-10-05T16:51:53.537Z,8.05
2018-10-05T16:54:21.130Z,7.17
2018-10-05T16:56:48.686Z,6.45
2018-10-05T16:59:16.347Z,7.12
2018-10-05T17:01:43.958Z,6.60
2018-10-05T17:04:11.642Z,6.55
2018-10-05T17:06:39.178Z,6.87
2018-10-05T17:09:08.786Z,6.15
2018-10-05T17:11:37.760Z,7.62
2018-10-05T17:14:11.578Z,6.97
2018-10-05T17:16:39.141Z,6.05
2018-10-05T17:19:07.007Z,6.10
2018-10-05T17:21:34.665Z,6.40
2018-10-05T17:24:02.273Z,6.00
2018-10-05T17:26:29.918Z,6.95
2018-10-05T17:28:57.421Z,5.83
2018-10-05T17:31:25.214Z,6.17
2018-10-05T17:33:52.938Z,5.10
2018-10-05T17:36:20.586Z,6.05
2018-10-05T17:38:48.203Z,5.25
2018-10-05T17:41:15.944Z,6.25
2018-10-05T17:43:43.535Z,6.03
2018-10-05T17:46:11.171Z,5.95
2018-10-05T17:48:38.703Z,6.75
2018-10-05T17:51:06.323Z,6.45
2018-10-05T17:53:33.945Z,5.62
2018-10-05T17:56:01.596Z,5.70
2018-10-05T17:58:29.213Z,5.80
2018-10-05T18:00:56.808Z,6.03
2018-10-05T18:03:24.403Z,6.35
2018-10-05T18:05:51.943Z,5.53
2018-10-05T18:08:19.566Z,5.55
2018-10-05T18:10:47.119Z,6.40
2018-10-05T18:13:14.721Z,6.20
2018-10-05T18:15:42.295Z,6.37
2018-10-05T18:18:09.911Z,5.53
2018-10-05T18:20:37.439Z,5.50
2018-10-05T18:23:05.059Z,6.80
2018-10-05T18:25:32.636Z,6.90
2018-10-05T18:28:00.201Z,6.55
2018-10-05T18:30:27.794Z,5.55
2018-10-05T18:32:55.460Z,6.00
2018-10-05T18:35:23.082Z,5.47
2018-10-05T18:37:50.995Z,6.08
2018-10-05T18:40:18.525Z,5.95
2018-10-05T18:42:46.225Z,5.10
2018-10-05T18:45:13.746Z,6.17
2018-10-05T18:47:41.420Z,6.62
2018-10-05T18:50:09.039Z,5.92
2018-10-05T18:52:36.774Z,6.35
2018-10-05T18:55:04.380Z,5.92
2018-10-05T18:57:32.033Z,6.37
2018-10-05T18:59:59.697Z,8.28
2018-10-05T19:02:27.322Z,8.15
2018-10-05T19:04:54.875Z,6.92
2018-10-05T19:07:22.506Z,6.92
2018-10-05T19:09:50.062Z,8.38
2018-10-05T19:12:17.575Z,8.45
2018-10-05T19:14:45.243Z,7.75
2018-10-05T19:17:12.984Z,7.35
2018-10-05T19:19:40.517Z,6.95
2018-10-05T19:22:10.238Z,8.40
2018-10-05T19:24:37.841Z,7.65
2018-10-05T19:27:05.455Z,8.20
2018-10-05T19:29:33.103Z,7.00
2018-10-05T19:32:00.954Z,7.60
2018-10-05T19:34:28.573Z,8.10
2018-10-05T19:36:56.074Z,7.95
2018-10-05T19:39:23.666Z,7.35
2018-10-05T19:41:51.207Z,7.22
2018-10-05T19:44:18.849Z,7.60
2018-10-05T19:46:46.381Z,6.90
2018-10-05T19:49:14.028Z,7.30
2018-10-05T19:51:41.574Z,7.37
2018-10-05T19:54:09.190Z,8.10
2018-10-05T19:56:36.858Z,6.58
2018-10-05T19:59:04.407Z,7.42
2018-10-05T20:01:31.974Z,7.53
2018-10-05T20:03:59.522Z,8.85
2018-10-05T20:06:27.139Z,8.63
2018-10-05T20:08:54.716Z,7.92
2018-10-05T20:11:22.344Z,7.35
2018-10-05T20:13:49.888Z,8.90
2018-10-05T20:16:17.474Z,8.23
2018-10-05T20:18:45.043Z,7.72
2018-10-05T20:21:12.540Z,8.10
2018-10-05T20:23:40.139Z,7.60
2018-10-05T20:26:07.676Z,7.70
2018-10-05T20:28:35.288Z,7.58
2018-10-05T20:31:04.045Z,7.33
2018-10-05T20:33:31.677Z,7.70
2018-10-05T20:35:59.267Z,7.87
2018-10-05T20:38:26.836Z,8.50
2018-10-05T20:40:54.429Z,7.97
2018-10-05T20:43:22.087Z,8.38
2018-10-05T20:45:49.582Z,8.50
2018-10-05T20:48:17.187Z,8.03
2018-10-05T20:50:44.783Z,7.58
2018-10-05T20:53:12.368Z,7.97
2018-10-05T20:55:39.915Z,8.38
2018-10-05T20:58:07.433Z,7.70
2018-10-05T21:00:35.065Z,7.35
2018-10-05T21:03:02.822Z,8.15
2018-10-05T21:05:30.402Z,6.53
2018-10-05T21:07:58.099Z,6.92
2018-10-05T21:10:25.727Z,7.20
2018-10-05T21:12:53.266Z,7.05
2018-10-05T21:15:21.204Z,7.83
2018-10-05T21:17:48.749Z,7.37
2018-10-05T21:20:16.336Z,9.88
2018-10-05T21:22:43.842Z,9.35
2018-10-05T21:25:11.344Z,8.93
2018-10-05T21:27:38.954Z,7.67
2018-10-05T21:30:06.505Z,9.30
2018-10-05T21:32:34.067Z,9.25
2018-10-05T21:35:01.579Z,9.45
2018-10-05T21:37:29.309Z,8.30
2018-10-05T21:39:56.838Z,9.30
2018-10-05T21:42:24.464Z,8.95
2018-10-05T21:44:52.009Z,10.08
2018-10-05T21:47:19.606Z,9.25
2018-10-05T21:49:47.097Z,8.60
2018-10-05T21:52:14.664Z,9.93
2018-10-05T21:54:42.296Z,8.95
2018-10-05T21:57:09.834Z,10.15
2018-10-05T21:59:37.541Z,9.95
2018-10-05T22:02:05.071Z,10.20
2018-10-05T22:04:32.626Z,9.85
2018-10-05T22:07:00.152Z,10.80
2018-10-05T22:09:27.903Z,10.00
2018-10-05T22:11:55.423Z,9.80
2018-10-05T22:14:22.970Z,10.03
2018-10-05T22:16:50.514Z,9.40
2018-10-05T22:19:18.077Z,9.33
2018-10-05T22:21:45.665Z,8.80
2018-10-05T22:24:13.157Z,9.43
2018-10-05T22:26:40.793Z,9.90
2018-10-05T22:29:08.335Z,9.93
2018-10-05T22:31:35.925Z,9.13
2018-10-05T22:34:03.450Z,9.53
2018-10-05T22:36:31.094Z,9.83
2018-10-05T22:38:58.555Z,9.88
2018-10-05T22:41:26.131Z,10.58
2018-10-05T22:43:53.692Z,10.08
2018-10-05T22:46:21.278Z,10.20
2018-10-05T22:48:48.895Z,10.15
2018-10-05T22:51:16.388Z,10.48
2018-10-05T22:53:43.950Z,11.68
2018-10-05T22:56:11.449Z,11.33
2018-10-05T22:58:38.974Z,10.13
2018-10-05T23:01:06.500Z,11.90
2018-10-05T23:03:34.278Z,11.33
2018-10-05T23:06:01.976Z,11.30
2018-10-05T23:08:29.554Z,12.40
2018-10-05T23:10:57.051Z,12.25
2018-10-05T23:13:24.602Z,11.88
2018-10-05T23:15:52.762Z,11.10
2018-10-05T23:18:20.247Z,10.90
2018-10-05T23:20:47.786Z,12.70
2018-10-05T23:23:15.274Z,13.50
2018-10-05T23:25:42.913Z,13.08
2018-10-05T23:28:10.393Z,12.88
2018-10-05T23:30:37.983Z,11.30
2018-10-05T23:33:05.549Z,12.60
2018-10-05T23:35:33.100Z,12.30
2018-10-05T23:38:00.802Z,13.05
2018-10-05T23:40:28.379Z,12.50
2018-10-05T23:42:55.931Z,11.68
2018-10-05T23:45:23.482Z,11.83
2018-10-05T23:47:50.991Z,11.03
2018-10-05T23:50:18.557Z,10.95
2018-10-05T23:52:49.954Z,10.93
2018-10-05T23:55:17.618Z,11.80
2018-10-05T23:57:45.284Z,10.55
